Lake Levels

Lake Updated Head elevation Tail elevation
Buchanan 04/13/2021 7:30 PM 1,012.61 887.23
Inks 04/13/2021 7:30 PM 887.03 824.77
LBJ 04/13/2021 7:15 PM 824.70 737.83
Marble Falls 04/13/2021 7:15 PM 736.43 676.50
Travis 04/13/2021 7:30 PM 657.66 492.64
Austin 04/13/2021 7:15 PM 492.03 429.22
Bastrop 04/13/2021 7:26 PM 449.97 0.00

Upper Basin

Location Updated Stage (ft) Flow (cfs) Bank Full Stage (ft) Flood Stage (ft)
Colorado River at Winchell 04/13/2021 7:25 PM 2.33 1 24.00 26.00
Colorado River near Goldthwaite 04/13/2021 7:25 PM 4.81 0 0.00 0.00
San Saba River at Menard 04/13/2021 7:26 PM 2.75 43 12.00 18.00
San Saba River near Brady 04/13/2021 7:25 PM 2.33 33 16.00 30.00
San Saba River at San Saba 04/13/2021 7:25 PM 2.84 58 20.00 24.00
Colorado River near San Saba 04/13/2021 7:25 PM 1.97 54 25.00 30.00
Lometa 2 WNW 04/13/2021 7:25 PM 1,389.91 0 0.00 0.00
Colorado River at Bend 04/13/2021 7:25 PM 6.47 74 0.00 0.00
Cherokee Creek near Bend 04/13/2021 7:25 PM 3.48 4 0.00 0.00
Lake Buchanan at Cedar Point 04/13/2021 7:25 PM 1,012.59 0 0.00 0.00
Inks Lake at Hwy 29 Bridge 04/13/2021 7:25 PM 887.11 0 0.00 0.00
Lake LBJ at 1431 Bridge 04/13/2021 7:25 PM 824.67 0 0.00 0.00
North Llano River near Roosevelt 04/13/2021 7:25 PM 1.24 0 0.00 0.00
South Llano River at Telegraph 04/13/2021 7:26 PM 2.58 0 0.00 0.00
Llano River near Junction 04/13/2021 7:25 PM 1.61 85 12.00 16.00
Johnson Fork near Junction 04/13/2021 7:25 PM 8.13 11 0.00 0.00
James River near Mason 04/13/2021 7:25 PM 5.51 1 0.00 0.00
Comanche Creek near Mason 04/13/2021 7:25 PM 5.57 0 0.00 0.00
Llano River near Mason 04/13/2021 7:25 PM 0.24 73 6.00 13.00
Willow Creek near Mason 04/13/2021 7:25 PM 4.59 0 0.00 0.00
Hickory Creek near Castell 04/13/2021 7:25 PM 4.90 1 0.00 0.00
San Fernando Creek near Llano 04/13/2021 7:25 PM 7.32 12 0.00 0.00
Johnson Creek near Llano 04/13/2021 7:25 PM 5.01 0 0.00 0.00
Llano River at Llano 04/13/2021 7:25 PM 2.24 76 10.00 10.00
Little Llano River near Llano 04/13/2021 7:25 PM 4.74 0 0.00 0.00
Honey Creek near Kingsland 04/13/2021 7:25 PM 5.54 0 0.00 0.00
Lake LBJ at 2900 Bridge 04/13/2021 7:25 PM 824.66 0 0.00 0.00
Sandy Creek near Willow City 04/13/2021 7:25 PM 2.76 3 0.00 0.00
Sandy Creek near Click 04/13/2021 7:25 PM 942.03 1 0.00 0.00
Sandy Creek near Kingsland 04/13/2021 7:25 PM 5.26 5 8.00 12.00
Walnut Creek near Kingsland 04/13/2021 7:26 PM 4.31 0 0.00 0.00
Lake LBJ at Sandy Harbor 04/13/2021 7:25 PM 824.82 0 0.00 0.00
Backbone Creek at Marble Falls 04/13/2021 7:25 PM 3.69 1 0.00 0.00
Flat Rock Creek near Marble Falls 04/13/2021 7:25 PM 868.57 0 0.00 0.00
Hamilton Creek near Marble Falls 04/13/2021 7:25 PM 6.46 0 0.00 0.00
Pedernales River near Fredericksburg 04/13/2021 7:25 PM 5.35 5 12.00 22.00
South Grape Creek near Luckenbach 04/13/2021 7:25 PM 5.00 0 0.00 0.00
Pedernales River at LBJ Ranch near Stonewall 04/13/2021 7:25 PM 12.15 10 0.00 0.00
North Grape Creek near Johnson City 04/13/2021 7:25 PM 5.25 0 0.00 0.00
Pedernales River near Johnson City 04/13/2021 7:25 PM 10.29 8 13.00 14.00
Miller Creek near Johnson City 04/13/2021 7:25 PM 2.59 0 0.00 0.00
Flat Creek near Pedernales Falls State Park 04/13/2021 7:25 PM 5.14 0 0.00 0.00
Cypress Creek near Cypress Mill 04/13/2021 7:25 PM 5.78 0 0.00 0.00
Cow Creek near Lago Vista 04/13/2021 7:25 PM 4.97 0 0.00 0.00
Big Sandy Creek near Jonestown 04/13/2021 7:25 PM 4.13 0 0.00 0.00

Lower Basin

Location Updated Stage (ft) Flow (cfs) Bank Full Stage (ft) Flood Stage (ft)
Lake Austin below Mansfield Dam 04/13/2021 7:25 PM 493.14 0 0.00 0.00
Lake Austin at Quinlan Park 04/13/2021 7:25 PM 493.34 0 0.00 0.00
Lake Austin at Cortana Shores 04/13/2021 7:25 PM 492.74 0 0.00 0.00
Lake Austin at Bunny Run Farm 04/13/2021 7:25 PM 492.78 0 0.00 0.00
Lady Bird Lake near Longhorn Dam 04/13/2021 7:25 PM 428.65 0 0.00 0.00
Colorado River at Austin 04/13/2021 7:25 PM 14.25 1,950 25.00 33.00
Onion Creek at Buda 04/13/2021 7:25 PM 2.62 0 8.00 15.00
Onion Creek at Hwy 183, Austin 04/13/2021 7:25 PM 5.03 2 15.00 17.00
Gilleland Creek near Manor 04/13/2021 7:25 PM 5.40 12 0.00 0.00
Colorado River near Webberville 04/13/2021 7:26 PM 7.33 619 0.00 0.00
Dry Creek near Elroy 04/13/2021 7:25 PM 5.80 1 0.00 0.00
Colorado River near Utley 04/13/2021 7:25 PM 9.06 1,070 0.00 0.00
Wilbarger Creek near Elgin 04/13/2021 7:25 PM 5.16 3 0.00 0.00
Big Sandy Creek near Elgin 04/13/2021 7:25 PM 0.80 0 0.00 0.00
Colorado River at Sim Gideon River Plant 04/13/2021 7:26 PM 324.45 0 0.00 0.00
Lake Bastrop at Sim Gideon Power Plant 04/13/2021 7:26 PM 449.97 0 0.00 0.00
Colorado River at Bastrop 04/13/2021 7:26 PM 3.53 1,141 14.00 23.00
Cedar Creek near Bastrop 04/13/2021 7:26 PM 3.32 0 0.00 0.00
Cedar Creek below Bastrop 04/13/2021 7:26 PM 6.25 0 0.00 0.00
Walnut Creek near Rockne 04/13/2021 7:26 PM 6.71 0 0.00 0.00
Colorado River near Upton 04/13/2021 7:26 PM 9.06 839 0.00 0.00
Colorado River at Smithville 04/13/2021 7:25 PM 2.12 990 10.00 20.00
Colorado River above La Grange 04/13/2021 7:25 PM 3.43 926 19.00 26.00
Buckners Creek near Muldoon 04/13/2021 7:25 PM 2.25 0 0.00 0.00
Lake Fayette at Fayette Power Plant 04/13/2021 7:25 PM 390.38 0 0.00 0.00
Cummins Creek near Frelsburg 04/13/2021 7:25 PM 5.54 0 0.00 27.00
Colorado River at Columbus 04/13/2021 7:25 PM 10.09 755 30.00 34.00
Colorado River at Lakeside River Plant 04/13/2021 7:25 PM 8.36 469 0.00 0.00
Colorado River near Glen Flora 04/13/2021 7:25 PM 74.97 0 0.00 0.00
Colorado River at Wharton 04/13/2021 7:25 PM 7.47 180 20.00 39.00
Colorado River at Bay City 04/13/2021 7:25 PM 2.99 256 23.00 44.00
San Bernard River at East Bernard 04/13/2021 7:25 PM 6.49 8 13.00 17.00
Colorado River at Matagorda 04/13/2021 7:25 PM 1.58 0 4.80 8.80
Blanco River at Blanco 04/13/2021 7:25 PM 12.36 9 0.00 0.00